sensor_id;sensor_type;location;lat;lon;timestamp;P1;durP1;ratioP1;P2;durP2;ratioP2
49978;SDS011;35869;50.990;6.962;2022-07-29T00:03:51;2.45;;;1.30;;
49978;SDS011;35869;50.990;6.962;2022-07-29T00:08:51;2.53;;;1.27;;
49978;SDS011;35869;50.990;6.962;2022-07-29T00:13:52;3.67;;;1.45;;
49978;SDS011;35869;50.990;6.962;2022-07-29T00:18:52;4.75;;;1.52;;
49978;SDS011;35869;50.990;6.962;2022-07-29T00:23:52;4.38;;;1.30;;
49978;SDS011;35869;50.990;6.962;2022-07-29T00:28:52;4.15;;;1.10;;
49978;SDS011;35869;50.990;6.962;2022-07-29T00:33:53;4.35;;;1.45;;
49978;SDS011;35869;50.990;6.962;2022-07-29T00:38:54;2.35;;;1.30;;
49978;SDS011;35869;50.990;6.962;2022-07-29T00:43:56;1.73;;;1.10;;
49978;SDS011;35869;50.990;6.962;2022-07-29T00:48:57;4.05;;;1.10;;
49978;SDS011;35869;50.990;6.962;2022-07-29T00:53:57;4.43;;;1.40;;
49978;SDS011;35869;50.990;6.962;2022-07-29T00:58:58;4.93;;;1.23;;
49978;SDS011;35869;50.990;6.962;2022-07-29T01:03:59;4.03;;;1.17;;
49978;SDS011;35869;50.990;6.962;2022-07-29T01:08:59;3.58;;;1.55;;
49978;SDS011;35869;50.990;6.962;2022-07-29T01:14:00;2.78;;;1.30;;
49978;SDS011;35869;50.990;6.962;2022-07-29T01:19:06;3.03;;;1.23;;
49978;SDS011;35869;50.990;6.962;2022-07-29T01:34:50;2.10;;;1.08;;
49978;SDS011;35869;50.990;6.962;2022-07-29T01:39:55;2.95;;;1.60;;
49978;SDS011;35869;50.990;6.962;2022-07-29T01:44:59;4.07;;;1.60;;
49978;SDS011;35869;50.990;6.962;2022-07-29T01:50:03;2.25;;;1.60;;
49978;SDS011;35869;50.990;6.962;2022-07-29T01:55:14;4.30;;;1.55;;
49978;SDS011;35869;50.990;6.962;2022-07-29T02:00:16;3.80;;;1.40;;
49978;SDS011;35869;50.990;6.962;2022-07-29T02:05:18;3.65;;;1.52;;
49978;SDS011;35869;50.990;6.962;2022-07-29T02:10:22;3.60;;;1.60;;
49978;SDS011;35869;50.990;6.962;2022-07-29T02:15:27;3.13;;;1.20;;
49978;SDS011;35869;50.990;6.962;2022-07-29T02:20:30;3.20;;;1.58;;
49978;SDS011;35869;50.990;6.962;2022-07-29T02:25:31;4.20;;;1.38;;
49978;SDS011;35869;50.990;6.962;2022-07-29T02:30:32;2.93;;;1.23;;
49978;SDS011;35869;50.990;6.962;2022-07-29T02:35:33;5.10;;;1.45;;
49978;SDS011;35869;50.990;6.962;2022-07-29T02:40:34;3.72;;;1.30;;
49978;SDS011;35869;50.990;6.962;2022-07-29T02:45:37;4.18;;;1.35;;
49978;SDS011;35869;50.990;6.962;2022-07-29T02:50:39;8.10;;;1.60;;
49978;SDS011;35869;50.990;6.962;2022-07-29T02:55:48;2.70;;;1.52;;
49978;SDS011;35869;50.990;6.962;2022-07-29T03:01:11;3.97;;;1.90;;
49978;SDS011;35869;50.990;6.962;2022-07-29T03:06:16;4.78;;;1.90;;
49978;SDS011;35869;50.990;6.962;2022-07-29T03:11:18;3.60;;;1.90;;
49978;SDS011;35869;50.990;6.962;2022-07-29T03:16:19;5.22;;;2.17;;
49978;SDS011;35869;50.990;6.962;2022-07-29T03:21:21;1.35;;;1.23;;
49978;SDS011;35869;50.990;6.962;2022-07-29T03:26:21;5.77;;;1.40;;
49978;SDS011;35869;50.990;6.962;2022-07-29T03:31:21;2.77;;;1.73;;
49978;SDS011;35869;50.990;6.962;2022-07-29T03:36:22;4.35;;;1.42;;
49978;SDS011;35869;50.990;6.962;2022-07-29T03:41:22;3.50;;;1.63;;
49978;SDS011;35869;50.990;6.962;2022-07-29T03:46:23;4.53;;;1.90;;
49978;SDS011;35869;50.990;6.962;2022-07-29T03:51:26;3.55;;;2.42;;
49978;SDS011;35869;50.990;6.962;2022-07-29T03:56:26;9.50;;;2.63;;
49978;SDS011;35869;50.990;6.962;2022-07-29T04:01:29;6.60;;;2.17;;
49978;SDS011;35869;50.990;6.962;2022-07-29T04:06:42;4.28;;;2.00;;
49978;SDS011;35869;50.990;6.962;2022-07-29T04:16:44;6.70;;;2.33;;
49978;SDS011;35869;50.990;6.962;2022-07-29T04:21:45;7.90;;;1.73;;
49978;SDS011;35869;50.990;6.962;2022-07-29T04:26:45;2.72;;;2.00;;
49978;SDS011;35869;50.990;6.962;2022-07-29T04:31:46;3.47;;;1.67;;
49978;SDS011;35869;50.990;6.962;2022-07-29T04:36:46;3.28;;;2.03;;
49978;SDS011;35869;50.990;6.962;2022-07-29T04:41:47;6.33;;;2.13;;
49978;SDS011;35869;50.990;6.962;2022-07-29T04:46:47;13.33;;;2.23;;
49978;SDS011;35869;50.990;6.962;2022-07-29T04:51:47;5.05;;;1.65;;
49978;SDS011;35869;50.990;6.962;2022-07-29T04:56:47;2.87;;;1.50;;
49978;SDS011;35869;50.990;6.962;2022-07-29T05:01:48;4.82;;;1.98;;
49978;SDS011;35869;50.990;6.962;2022-07-29T05:06:48;4.68;;;2.00;;
49978;SDS011;35869;50.990;6.962;2022-07-29T05:11:48;3.85;;;1.70;;
49978;SDS011;35869;50.990;6.962;2022-07-29T05:16:48;4.60;;;1.80;;
49978;SDS011;35869;50.990;6.962;2022-07-29T05:21:49;3.50;;;2.03;;
49978;SDS011;35869;50.990;6.962;2022-07-29T05:26:49;7.15;;;2.00;;
49978;SDS011;35869;50.990;6.962;2022-07-29T05:31:49;2.72;;;1.58;;
49978;SDS011;35869;50.990;6.962;2022-07-29T05:36:49;6.90;;;1.90;;
49978;SDS011;35869;50.990;6.962;2022-07-29T05:41:50;9.13;;;2.23;;
49978;SDS011;35869;50.990;6.962;2022-07-29T05:46:50;5.03;;;2.50;;
49978;SDS011;35869;50.990;6.962;2022-07-29T05:51:50;3.78;;;1.48;;
49978;SDS011;35869;50.990;6.962;2022-07-29T05:56:51;4.93;;;2.30;;
49978;SDS011;35869;50.990;6.962;2022-07-29T06:01:51;10.32;;;2.20;;
49978;SDS011;35869;50.990;6.962;2022-07-29T06:06:51;5.23;;;1.57;;
49978;SDS011;35869;50.990;6.962;2022-07-29T06:11:52;7.97;;;2.47;;
49978;SDS011;35869;50.990;6.962;2022-07-29T06:16:52;5.22;;;1.88;;
49978;SDS011;35869;50.990;6.962;2022-07-29T06:21:52;6.33;;;1.87;;
49978;SDS011;35869;50.990;6.962;2022-07-29T06:26:52;5.90;;;2.20;;
49978;SDS011;35869;50.990;6.962;2022-07-29T06:31:53;5.45;;;2.10;;
49978;SDS011;35869;50.990;6.962;2022-07-29T06:36:53;3.77;;;2.40;;
49978;SDS011;35869;50.990;6.962;2022-07-29T06:41:53;11.00;;;2.10;;
49978;SDS011;35869;50.990;6.962;2022-07-29T06:46:53;12.90;;;1.70;;
49978;SDS011;35869;50.990;6.962;2022-07-29T06:51:54;2.97;;;1.70;;
49978;SDS011;35869;50.990;6.962;2022-07-29T06:56:54;9.60;;;2.17;;
49978;SDS011;35869;50.990;6.962;2022-07-29T07:01:55;9.87;;;2.03;;
49978;SDS011;35869;50.990;6.962;2022-07-29T07:06:55;3.90;;;1.80;;
49978;SDS011;35869;50.990;6.962;2022-07-29T07:11:55;8.15;;;2.15;;
49978;SDS011;35869;50.990;6.962;2022-07-29T07:16:55;6.00;;;2.20;;
49978;SDS011;35869;50.990;6.962;2022-07-29T07:21:56;6.60;;;1.97;;
49978;SDS011;35869;50.990;6.962;2022-07-29T07:26:56;5.53;;;1.90;;
49978;SDS011;35869;50.990;6.962;2022-07-29T07:31:57;7.03;;;2.22;;
49978;SDS011;35869;50.990;6.962;2022-07-29T07:36:57;8.30;;;1.98;;
49978;SDS011;35869;50.990;6.962;2022-07-29T07:41:58;6.50;;;2.43;;
49978;SDS011;35869;50.990;6.962;2022-07-29T07:46:58;7.65;;;2.20;;
49978;SDS011;35869;50.990;6.962;2022-07-29T07:51:59;7.32;;;2.55;;
49978;SDS011;35869;50.990;6.962;2022-07-29T07:56:59;6.95;;;1.88;;
49978;SDS011;35869;50.990;6.962;2022-07-29T08:01:59;10.17;;;2.70;;
49978;SDS011;35869;50.990;6.962;2022-07-29T08:06:59;10.17;;;3.00;;
49978;SDS011;35869;50.990;6.962;2022-07-29T08:12:00;8.13;;;2.25;;
49978;SDS011;35869;50.990;6.962;2022-07-29T08:17:00;7.77;;;2.83;;
49978;SDS011;35869;50.990;6.962;2022-07-29T08:22:01;4.82;;;2.45;;
49978;SDS011;35869;50.990;6.962;2022-07-29T08:27:01;5.05;;;2.17;;
49978;SDS011;35869;50.990;6.962;2022-07-29T08:32:01;5.47;;;1.98;;
49978;SDS011;35869;50.990;6.962;2022-07-29T08:37:02;4.47;;;2.40;;
49978;SDS011;35869;50.990;6.962;2022-07-29T08:42:03;5.00;;;2.25;;
49978;SDS011;35869;50.990;6.962;2022-07-29T08:47:03;4.67;;;2.57;;
49978;SDS011;35869;50.990;6.962;2022-07-29T08:52:03;5.27;;;2.23;;
49978;SDS011;35869;50.990;6.962;2022-07-29T08:57:04;5.00;;;2.67;;
49978;SDS011;35869;50.990;6.962;2022-07-29T09:02:05;7.47;;;2.72;;
49978;SDS011;35869;50.990;6.962;2022-07-29T09:07:14;5.45;;;2.70;;
49978;SDS011;35869;50.990;6.962;2022-07-29T09:12:15;10.60;;;2.90;;
49978;SDS011;35869;50.990;6.962;2022-07-29T09:17:15;8.47;;;3.20;;
49978;SDS011;35869;50.990;6.962;2022-07-29T09:22:28;6.17;;;2.93;;
49978;SDS011;35869;50.990;6.962;2022-07-29T09:27:28;4.50;;;2.75;;
49978;SDS011;35869;50.990;6.962;2022-07-29T09:32:29;3.97;;;2.65;;
49978;SDS011;35869;50.990;6.962;2022-07-29T09:37:29;8.68;;;2.95;;
49978;SDS011;35869;50.990;6.962;2022-07-29T09:42:30;7.55;;;3.13;;
49978;SDS011;35869;50.990;6.962;2022-07-29T09:47:40;6.70;;;3.25;;
49978;SDS011;35869;50.990;6.962;2022-07-29T09:52:45;10.80;;;3.25;;
49978;SDS011;35869;50.990;6.962;2022-07-29T09:57:47;6.60;;;3.13;;
49978;SDS011;35869;50.990;6.962;2022-07-29T10:02:48;9.75;;;2.92;;
49978;SDS011;35869;50.990;6.962;2022-07-29T10:07:50;8.10;;;3.38;;
49978;SDS011;35869;50.990;6.962;2022-07-29T10:13:02;13.88;;;3.75;;
49978;SDS011;35869;50.990;6.962;2022-07-29T10:18:10;7.63;;;3.30;;
49978;SDS011;35869;50.990;6.962;2022-07-29T10:23:12;7.63;;;3.58;;
49978;SDS011;35869;50.990;6.962;2022-07-29T10:28:12;10.93;;;3.15;;
49978;SDS011;35869;50.990;6.962;2022-07-29T10:43:35;10.35;;;3.92;;
49978;SDS011;35869;50.990;6.962;2022-07-29T10:54:35;9.57;;;4.27;;
49978;SDS011;35869;50.990;6.962;2022-07-29T10:59:36;8.70;;;3.30;;
49978;SDS011;35869;50.990;6.962;2022-07-29T11:10:18;7.72;;;3.80;;
49978;SDS011;35869;50.990;6.962;2022-07-29T11:15:12;6.95;;;3.17;;
49978;SDS011;35869;50.990;6.962;2022-07-29T11:25:32;6.78;;;3.38;;
49978;SDS011;35869;50.990;6.962;2022-07-29T11:31:06;10.07;;;2.83;;
49978;SDS011;35869;50.990;6.962;2022-07-29T11:36:13;5.80;;;2.97;;
49978;SDS011;35869;50.990;6.962;2022-07-29T11:51:42;6.72;;;2.75;;
49978;SDS011;35869;50.990;6.962;2022-07-29T11:56:49;7.82;;;3.08;;
49978;SDS011;35869;50.990;6.962;2022-07-29T12:01:51;6.20;;;2.20;;
49978;SDS011;35869;50.990;6.962;2022-07-29T12:06:55;4.10;;;2.17;;
49978;SDS011;35869;50.990;6.962;2022-07-29T12:11:56;3.28;;;2.00;;
49978;SDS011;35869;50.990;6.962;2022-07-29T12:16:58;4.90;;;1.80;;
49978;SDS011;35869;50.990;6.962;2022-07-29T12:21:59;5.85;;;1.75;;
49978;SDS011;35869;50.990;6.962;2022-07-29T12:27:00;4.85;;;1.80;;
49978;SDS011;35869;50.990;6.962;2022-07-29T12:32:00;3.23;;;2.10;;
49978;SDS011;35869;50.990;6.962;2022-07-29T12:37:00;8.33;;;2.20;;
49978;SDS011;35869;50.990;6.962;2022-07-29T12:42:10;4.93;;;1.90;;
49978;SDS011;35869;50.990;6.962;2022-07-29T12:47:11;3.92;;;1.95;;
49978;SDS011;35869;50.990;6.962;2022-07-29T12:52:24;4.50;;;2.20;;
49978;SDS011;35869;50.990;6.962;2022-07-29T12:57:24;3.42;;;1.80;;
49978;SDS011;35869;50.990;6.962;2022-07-29T13:02:25;4.85;;;1.77;;
49978;SDS011;35869;50.990;6.962;2022-07-29T13:07:26;2.23;;;1.50;;
49978;SDS011;35869;50.990;6.962;2022-07-29T13:12:28;5.47;;;2.05;;
49978;SDS011;35869;50.990;6.962;2022-07-29T13:17:28;4.67;;;2.07;;
49978;SDS011;35869;50.990;6.962;2022-07-29T13:22:41;4.97;;;2.03;;
49978;SDS011;35869;50.990;6.962;2022-07-29T13:27:42;3.22;;;1.98;;
49978;SDS011;35869;50.990;6.962;2022-07-29T13:37:42;4.63;;;2.63;;
49978;SDS011;35869;50.990;6.962;2022-07-29T13:42:42;6.70;;;3.05;;
49978;SDS011;35869;50.990;6.962;2022-07-29T13:47:43;4.53;;;2.83;;
49978;SDS011;35869;50.990;6.962;2022-07-29T13:52:43;5.10;;;2.60;;
49978;SDS011;35869;50.990;6.962;2022-07-29T14:02:43;8.57;;;3.73;;
49978;SDS011;35869;50.990;6.962;2022-07-29T14:12:44;4.83;;;3.00;;
49978;SDS011;35869;50.990;6.962;2022-07-29T14:17:44;7.38;;;3.20;;
49978;SDS011;35869;50.990;6.962;2022-07-29T14:27:44;8.10;;;2.80;;
49978;SDS011;35869;50.990;6.962;2022-07-29T14:37:45;6.23;;;3.03;;
49978;SDS011;35869;50.990;6.962;2022-07-29T14:47:45;5.83;;;3.63;;
49978;SDS011;35869;50.990;6.962;2022-07-29T14:52:46;10.13;;;3.10;;
49978;SDS011;35869;50.990;6.962;2022-07-29T15:02:47;3.88;;;2.63;;
49978;SDS011;35869;50.990;6.962;2022-07-29T15:07:48;3.33;;;2.47;;
49978;SDS011;35869;50.990;6.962;2022-07-29T15:17:48;3.97;;;2.23;;
49978;SDS011;35869;50.990;6.962;2022-07-29T15:27:49;4.70;;;2.20;;
49978;SDS011;35869;50.990;6.962;2022-07-29T15:37:49;5.93;;;1.90;;
49978;SDS011;35869;50.990;6.962;2022-07-29T15:42:49;10.25;;;2.47;;
49978;SDS011;35869;50.990;6.962;2022-07-29T15:47:50;5.53;;;2.20;;
49978;SDS011;35869;50.990;6.962;2022-07-29T15:52:50;7.07;;;2.50;;
49978;SDS011;35869;50.990;6.962;2022-07-29T15:57:50;4.63;;;2.13;;
49978;SDS011;35869;50.990;6.962;2022-07-29T16:02:51;4.83;;;2.10;;
49978;SDS011;35869;50.990;6.962;2022-07-29T16:07:51;4.72;;;2.00;;
49978;SDS011;35869;50.990;6.962;2022-07-29T16:12:51;2.38;;;1.75;;
49978;SDS011;35869;50.990;6.962;2022-07-29T16:17:51;3.25;;;2.28;;
49978;SDS011;35869;50.990;6.962;2022-07-29T16:22:51;4.40;;;2.13;;
49978;SDS011;35869;50.990;6.962;2022-07-29T16:27:52;8.77;;;2.58;;
49978;SDS011;35869;50.990;6.962;2022-07-29T16:32:52;2.95;;;1.90;;
49978;SDS011;35869;50.990;6.962;2022-07-29T16:37:52;2.88;;;1.88;;
49978;SDS011;35869;50.990;6.962;2022-07-29T16:42:53;5.43;;;1.83;;
49978;SDS011;35869;50.990;6.962;2022-07-29T16:47:53;6.53;;;2.20;;
49978;SDS011;35869;50.990;6.962;2022-07-29T16:52:54;7.85;;;3.13;;
49978;SDS011;35869;50.990;6.962;2022-07-29T16:57:55;6.60;;;2.53;;
49978;SDS011;35869;50.990;6.962;2022-07-29T17:02:55;5.53;;;2.35;;
49978;SDS011;35869;50.990;6.962;2022-07-29T17:07:55;4.43;;;2.10;;
49978;SDS011;35869;50.990;6.962;2022-07-29T17:12:55;6.07;;;1.88;;
49978;SDS011;35869;50.990;6.962;2022-07-29T17:17:56;4.53;;;2.25;;
49978;SDS011;35869;50.990;6.962;2022-07-29T17:22:56;5.55;;;2.35;;
49978;SDS011;35869;50.990;6.962;2022-07-29T17:27:56;7.88;;;2.40;;
49978;SDS011;35869;50.990;6.962;2022-07-29T17:32:56;7.95;;;3.00;;
49978;SDS011;35869;50.990;6.962;2022-07-29T17:37:57;4.85;;;2.10;;
49978;SDS011;35869;50.990;6.962;2022-07-29T17:42:57;5.25;;;2.50;;
49978;SDS011;35869;50.990;6.962;2022-07-29T17:47:57;6.03;;;2.40;;
49978;SDS011;35869;50.990;6.962;2022-07-29T17:52:57;6.15;;;3.17;;
49978;SDS011;35869;50.990;6.962;2022-07-29T17:57:58;5.38;;;2.15;;
49978;SDS011;35869;50.990;6.962;2022-07-29T18:02:58;8.40;;;2.10;;
49978;SDS011;35869;50.990;6.962;2022-07-29T18:07:58;6.40;;;2.50;;
49978;SDS011;35869;50.990;6.962;2022-07-29T18:12:59;6.22;;;2.10;;
49978;SDS011;35869;50.990;6.962;2022-07-29T18:18:00;4.47;;;2.40;;
49978;SDS011;35869;50.990;6.962;2022-07-29T18:23:00;2.73;;;2.13;;
49978;SDS011;35869;50.990;6.962;2022-07-29T18:28:00;6.35;;;2.72;;
49978;SDS011;35869;50.990;6.962;2022-07-29T18:33:01;4.33;;;2.33;;
49978;SDS011;35869;50.990;6.962;2022-07-29T18:38:01;4.15;;;2.92;;
49978;SDS011;35869;50.990;6.962;2022-07-29T18:43:01;6.65;;;2.40;;
49978;SDS011;35869;50.990;6.962;2022-07-29T18:48:01;2.47;;;2.20;;
49978;SDS011;35869;50.990;6.962;2022-07-29T18:53:02;4.68;;;2.25;;
49978;SDS011;35869;50.990;6.962;2022-07-29T18:58:03;4.25;;;2.63;;
49978;SDS011;35869;50.990;6.962;2022-07-29T19:03:03;5.70;;;2.33;;
49978;SDS011;35869;50.990;6.962;2022-07-29T19:08:03;7.30;;;2.17;;
49978;SDS011;35869;50.990;6.962;2022-07-29T19:13:04;4.10;;;2.60;;
49978;SDS011;35869;50.990;6.962;2022-07-29T19:18:04;7.00;;;2.75;;
49978;SDS011;35869;50.990;6.962;2022-07-29T19:23:04;6.25;;;2.45;;
49978;SDS011;35869;50.990;6.962;2022-07-29T19:28:05;6.63;;;2.27;;
49978;SDS011;35869;50.990;6.962;2022-07-29T19:33:05;5.27;;;2.40;;
49978;SDS011;35869;50.990;6.962;2022-07-29T19:38:05;10.23;;;2.30;;
49978;SDS011;35869;50.990;6.962;2022-07-29T19:43:06;4.60;;;2.53;;
49978;SDS011;35869;50.990;6.962;2022-07-29T19:48:06;4.95;;;2.28;;
49978;SDS011;35869;50.990;6.962;2022-07-29T19:53:06;4.40;;;2.28;;
49978;SDS011;35869;50.990;6.962;2022-07-29T19:58:07;3.83;;;2.13;;
49978;SDS011;35869;50.990;6.962;2022-07-29T20:03:07;3.10;;;2.60;;
49978;SDS011;35869;50.990;6.962;2022-07-29T20:08:07;3.20;;;1.98;;
49978;SDS011;35869;50.990;6.962;2022-07-29T20:13:08;5.37;;;2.60;;
49978;SDS011;35869;50.990;6.962;2022-07-29T20:18:08;7.67;;;3.73;;
49978;SDS011;35869;50.990;6.962;2022-07-29T20:23:08;5.32;;;2.70;;
49978;SDS011;35869;50.990;6.962;2022-07-29T20:28:09;6.80;;;3.17;;
49978;SDS011;35869;50.990;6.962;2022-07-29T20:33:09;6.60;;;3.13;;
49978;SDS011;35869;50.990;6.962;2022-07-29T20:38:09;3.60;;;2.33;;
49978;SDS011;35869;50.990;6.962;2022-07-29T20:43:09;5.10;;;2.92;;
49978;SDS011;35869;50.990;6.962;2022-07-29T20:48:10;4.20;;;2.63;;
49978;SDS011;35869;50.990;6.962;2022-07-29T20:53:10;4.50;;;2.50;;
49978;SDS011;35869;50.990;6.962;2022-07-29T20:58:10;5.90;;;2.55;;
49978;SDS011;35869;50.990;6.962;2022-07-29T21:03:10;7.50;;;3.85;;
49978;SDS011;35869;50.990;6.962;2022-07-29T21:08:11;4.75;;;2.78;;
49978;SDS011;35869;50.990;6.962;2022-07-29T21:13:11;7.25;;;3.10;;
49978;SDS011;35869;50.990;6.962;2022-07-29T21:18:11;4.22;;;3.25;;
49978;SDS011;35869;50.990;6.962;2022-07-29T21:23:11;8.00;;;3.30;;
49978;SDS011;35869;50.990;6.962;2022-07-29T21:28:12;7.50;;;3.15;;
49978;SDS011;35869;50.990;6.962;2022-07-29T21:33:12;5.10;;;3.50;;
49978;SDS011;35869;50.990;6.962;2022-07-29T21:38:12;5.57;;;3.13;;
49978;SDS011;35869;50.990;6.962;2022-07-29T21:43:13;5.40;;;3.03;;
49978;SDS011;35869;50.990;6.962;2022-07-29T21:48:14;7.78;;;3.30;;
49978;SDS011;35869;50.990;6.962;2022-07-29T21:53:16;5.32;;;3.40;;
49978;SDS011;35869;50.990;6.962;2022-07-29T21:58:16;9.05;;;3.70;;
49978;SDS011;35869;50.990;6.962;2022-07-29T22:03:17;5.88;;;3.33;;
49978;SDS011;35869;50.990;6.962;2022-07-29T22:08:17;8.97;;;3.50;;
49978;SDS011;35869;50.990;6.962;2022-07-29T22:13:17;4.45;;;3.05;;
49978;SDS011;35869;50.990;6.962;2022-07-29T22:18:17;4.80;;;3.47;;
49978;SDS011;35869;50.990;6.962;2022-07-29T22:23:18;5.18;;;3.13;;
49978;SDS011;35869;50.990;6.962;2022-07-29T22:28:18;7.83;;;3.73;;
49978;SDS011;35869;50.990;6.962;2022-07-29T22:33:18;4.65;;;3.15;;
49978;SDS011;35869;50.990;6.962;2022-07-29T22:38:19;4.93;;;3.47;;
49978;SDS011;35869;50.990;6.962;2022-07-29T22:43:19;6.38;;;3.20;;
49978;SDS011;35869;50.990;6.962;2022-07-29T22:48:19;5.13;;;3.00;;
49978;SDS011;35869;50.990;6.962;2022-07-29T22:53:19;4.30;;;3.28;;
49978;SDS011;35869;50.990;6.962;2022-07-29T22:58:20;8.68;;;4.30;;
49978;SDS011;35869;50.990;6.962;2022-07-29T23:03:20;4.88;;;3.50;;
49978;SDS011;35869;50.990;6.962;2022-07-29T23:08:20;6.65;;;3.10;;
49978;SDS011;35869;50.990;6.962;2022-07-29T23:13:21;4.70;;;3.33;;
49978;SDS011;35869;50.990;6.962;2022-07-29T23:18:21;7.35;;;3.60;;
49978;SDS011;35869;50.990;6.962;2022-07-29T23:23:21;6.85;;;3.40;;
49978;SDS011;35869;50.990;6.962;2022-07-29T23:28:22;5.50;;;3.38;;
49978;SDS011;35869;50.990;6.962;2022-07-29T23:33:22;7.50;;;4.10;;
49978;SDS011;35869;50.990;6.962;2022-07-29T23:38:22;6.47;;;3.63;;
49978;SDS011;35869;50.990;6.962;2022-07-29T23:43:23;4.63;;;3.30;;
49978;SDS011;35869;50.990;6.962;2022-07-29T23:48:23;5.10;;;3.10;;
49978;SDS011;35869;50.990;6.962;2022-07-29T23:53:24;10.68;;;3.90;;
49978;SDS011;35869;50.990;6.962;2022-07-29T23:58:24;9.32;;;4.03;;
